createdAt,value
2023-05-25T00:01:15.433Z,11.32
2023-05-25T00:04:23.985Z,11.25
2023-05-25T00:07:32.604Z,11.17
2023-05-25T00:10:40.507Z,11.07
2023-05-25T00:13:49.304Z,11.02
2023-05-25T00:16:57.701Z,10.98
2023-05-25T00:20:04.743Z,10.92
2023-05-25T00:23:14.040Z,10.89
2023-05-25T00:26:21.644Z,10.89
2023-05-25T00:29:29.051Z,10.81
2023-05-25T00:32:35.945Z,10.74
2023-05-25T00:35:46.027Z,10.66
2023-05-25T00:38:53.178Z,10.62
2023-05-25T00:42:01.597Z,10.55
2023-05-25T00:45:10.038Z,10.40
2023-05-25T00:48:17.823Z,10.30
2023-05-25T00:51:27.656Z,10.24
2023-05-25T00:54:36.966Z,10.25
2023-05-25T00:57:44.346Z,10.26
2023-05-25T01:00:51.931Z,10.18
2023-05-25T01:04:01.372Z,10.09
2023-05-25T01:07:08.697Z,10.00
2023-05-25T01:10:16.366Z,9.93
2023-05-25T01:13:24.244Z,9.88
2023-05-25T01:16:33.031Z,9.82
2023-05-25T01:19:41.100Z,9.70
2023-05-25T01:22:49.461Z,9.68
2023-05-25T01:25:58.900Z,9.63
2023-05-25T01:29:06.062Z,9.60
2023-05-25T01:32:13.671Z,9.56
2023-05-25T01:35:22.370Z,9.49
2023-05-25T01:38:29.941Z,9.49
2023-05-25T01:41:37.662Z,9.42
2023-05-25T01:44:46.064Z,9.42
2023-05-25T01:47:54.366Z,9.42
2023-05-25T01:51:02.113Z,9.42
2023-05-25T01:54:10.053Z,9.43
2023-05-25T01:57:19.108Z,9.50
2023-05-25T02:00:26.741Z,9.58
2023-05-25T02:03:34.254Z,9.67
2023-05-25T02:06:43.200Z,9.75
2023-05-25T02:09:51.833Z,9.78
2023-05-25T02:12:58.789Z,9.78
2023-05-25T02:16:08.242Z,9.75
2023-05-25T02:19:15.678Z,9.71
2023-05-25T02:22:23.607Z,9.67
2023-05-25T02:25:33.039Z,9.68
2023-05-25T02:28:40.956Z,9.75
2023-05-25T02:31:48.607Z,9.79
2023-05-25T02:34:57.559Z,9.83
2023-05-25T02:38:04.893Z,9.82
2023-05-25T02:41:11.907Z,9.83
2023-05-25T02:44:19.601Z,9.88
2023-05-25T02:47:28.396Z,9.88
2023-05-25T02:50:35.751Z,9.85
2023-05-25T02:53:43.436Z,9.85
2023-05-25T02:56:52.268Z,9.81
2023-05-25T02:59:59.666Z,9.75
2023-05-25T03:03:07.284Z,9.67
2023-05-25T03:06:16.644Z,9.60
2023-05-25T03:09:25.144Z,9.52
2023-05-25T03:10:51.303Z,9.46
2023-05-25T03:13:58.979Z,9.35
2023-05-25T03:17:07.684Z,9.31
2023-05-25T03:20:15.436Z,9.24
2023-05-25T03:23:22.418Z,9.20
2023-05-25T03:26:32.048Z,9.15
2023-05-25T03:29:39.045Z,9.13
2023-05-25T03:32:47.034Z,9.13
2023-05-25T03:35:55.944Z,9.12
2023-05-25T03:39:03.983Z,9.15
2023-05-25T03:42:11.413Z,9.15
2023-05-25T03:45:18.975Z,9.18
2023-05-25T03:48:27.724Z,9.16
2023-05-25T03:51:35.098Z,9.18
2023-05-25T03:54:42.445Z,9.24
2023-05-25T03:57:51.610Z,9.27
2023-05-25T04:00:58.618Z,9.30
2023-05-25T04:04:07.178Z,9.32
2023-05-25T04:07:15.962Z,9.45
2023-05-25T04:10:23.799Z,9.48
2023-05-25T04:13:32.176Z,9.52
2023-05-25T04:16:41.095Z,9.57
2023-05-25T04:19:48.494Z,9.56
2023-05-25T04:21:04.862Z,9.53
2023-05-25T04:24:12.142Z,9.56
2023-05-25T04:27:21.275Z,9.60
2023-05-25T04:30:28.667Z,9.71
2023-05-25T04:33:36.122Z,9.73
2023-05-25T04:36:45.209Z,9.79
2023-05-25T04:39:53.130Z,9.79
2023-05-25T04:43:01.123Z,9.82
2023-05-25T04:46:08.975Z,9.79
2023-05-25T04:49:18.050Z,9.88
2023-05-25T04:52:24.933Z,9.97
2023-05-25T04:55:32.584Z,9.96
2023-05-25T04:58:41.757Z,9.73
2023-05-25T05:01:49.105Z,9.53
2023-05-25T05:04:56.335Z,9.63
2023-05-25T05:08:05.324Z,9.64
2023-05-25T05:11:12.603Z,9.70
2023-05-25T05:14:20.484Z,9.68
2023-05-25T05:17:30.099Z,9.71
2023-05-25T05:20:37.181Z,9.85
2023-05-25T05:23:45.145Z,10.06
2023-05-25T05:26:58.273Z,10.24
2023-05-25T05:29:57.197Z,10.44
2023-05-25T05:33:05.520Z,10.65
2023-05-25T05:36:12.384Z,10.83
2023-05-25T05:39:21.587Z,10.76
2023-05-25T05:42:29.429Z,10.73
2023-05-25T05:45:37.386Z,10.60
2023-05-25T05:48:46.194Z,10.52
2023-05-25T05:51:53.612Z,10.53
2023-05-25T05:55:01.597Z,10.62
2023-05-25T05:58:10.386Z,10.63
2023-05-25T06:01:18.197Z,10.78
2023-05-25T06:04:25.907Z,10.89
2023-05-25T06:07:33.266Z,10.96
2023-05-25T06:10:41.997Z,11.11
2023-05-25T06:13:49.723Z,11.32
2023-05-25T06:16:57.653Z,11.50
2023-05-25T06:20:05.853Z,11.67
2023-05-25T06:23:14.569Z,11.65
2023-05-25T06:26:21.496Z,11.46
2023-05-25T06:29:30.554Z,11.31
2023-05-25T06:32:37.570Z,11.36
2023-05-25T06:35:46.948Z,11.38
2023-05-25T06:38:45.126Z,11.44
2023-05-25T06:41:52.472Z,11.50
2023-05-25T06:44:59.920Z,11.64
2023-05-25T06:48:07.784Z,11.78
2023-05-25T06:51:16.832Z,11.99
2023-05-25T06:54:24.152Z,12.15
2023-05-25T06:57:31.859Z,11.97
2023-05-25T07:00:40.249Z,11.80
2023-05-25T07:03:48.221Z,11.77
2023-05-25T07:06:55.930Z,11.89
2023-05-25T07:10:04.545Z,11.94
2023-05-25T07:13:12.083Z,12.08
2023-05-25T07:16:19.478Z,12.20
2023-05-25T07:19:28.723Z,12.30
2023-05-25T07:22:36.902Z,12.38
2023-05-25T07:25:45.157Z,12.30
2023-05-25T07:28:54.395Z,12.38
2023-05-25T07:32:01.751Z,12.38
2023-05-25T07:35:09.898Z,12.48
2023-05-25T07:38:17.235Z,12.34
2023-05-25T07:41:26.457Z,12.41
2023-05-25T07:44:35.135Z,12.57
2023-05-25T07:47:43.101Z,12.78
2023-05-25T07:50:51.471Z,12.96
2023-05-25T07:54:00.253Z,12.97
2023-05-25T07:57:07.763Z,13.06
2023-05-25T08:00:16.956Z,13.27
2023-05-25T08:03:39.826Z,13.46
2023-05-25T08:07:07.120Z,13.61
2023-05-25T08:10:16.099Z,13.70
2023-05-25T08:13:23.551Z,13.69
2023-05-25T08:16:31.971Z,13.69
2023-05-25T08:19:41.091Z,13.61
2023-05-25T08:22:49.319Z,13.63
2023-05-25T08:25:57.054Z,13.91
2023-05-25T08:29:04.269Z,14.19
2023-05-25T08:32:14.206Z,14.35
2023-05-25T08:35:21.642Z,14.39
2023-05-25T08:38:29.473Z,14.53
2023-05-25T08:41:38.640Z,14.78
2023-05-25T08:44:45.914Z,14.69
2023-05-25T08:47:54.010Z,14.38
2023-05-25T08:51:03.374Z,14.86
2023-05-25T08:54:11.106Z,15.17
2023-05-25T08:57:18.812Z,15.42
2023-05-25T09:00:27.401Z,15.19
2023-05-25T09:03:34.885Z,15.08
2023-05-25T09:06:44.091Z,15.23
2023-05-25T09:09:52.224Z,15.67
2023-05-25T09:13:19.074Z,15.82
2023-05-25T09:16:07.525Z,15.66
2023-05-25T09:19:16.229Z,15.49
2023-05-25T09:22:25.448Z,15.28
2023-05-25T09:25:33.173Z,15.23
2023-05-25T09:28:40.727Z,15.48
2023-05-25T09:31:50.009Z,15.85
2023-05-25T09:34:57.850Z,15.59
2023-05-25T09:38:05.117Z,15.68
2023-05-25T09:41:14.958Z,16.18
2023-05-25T09:44:22.377Z,16.41
2023-05-25T09:47:30.106Z,16.33
2023-05-25T09:50:39.198Z,16.27
2023-05-25T09:53:47.053Z,15.84
2023-05-25T09:56:54.461Z,15.70
2023-05-25T10:00:02.377Z,15.46
2023-05-25T10:03:11.608Z,15.66
2023-05-25T10:06:19.904Z,15.76
2023-05-25T10:09:27.298Z,15.78
2023-05-25T10:12:37.096Z,15.94
2023-05-25T10:15:44.047Z,16.07
2023-05-25T10:18:51.787Z,16.12
2023-05-25T10:22:01.064Z,16.37
2023-05-25T10:25:09.044Z,16.38
2023-05-25T10:28:16.954Z,16.31
2023-05-25T10:31:26.229Z,16.37
2023-05-25T10:34:33.920Z,16.53
2023-05-25T10:37:42.437Z,16.22
2023-05-25T10:40:50.327Z,15.85
2023-05-25T10:43:59.414Z,15.92
2023-05-25T10:47:07.221Z,16.35
2023-05-25T10:50:15.342Z,16.90
2023-05-25T10:53:23.671Z,17.00
2023-05-25T10:56:32.204Z,17.18
2023-05-25T10:59:39.216Z,17.87
2023-05-25T11:02:48.372Z,18.03
2023-05-25T11:05:56.682Z,18.10
2023-05-25T11:09:04.003Z,17.70
2023-05-25T11:12:12.830Z,17.62
2023-05-25T11:15:20.376Z,17.11
2023-05-25T11:18:28.012Z,17.14
2023-05-25T11:21:36.802Z,17.44
2023-05-25T11:24:44.085Z,17.92
2023-05-25T11:27:51.444Z,17.95
2023-05-25T11:30:58.886Z,17.74
2023-05-25T11:34:08.238Z,18.04
2023-05-25T11:37:15.129Z,17.99
2023-05-25T11:40:22.630Z,17.69
2023-05-25T11:43:31.313Z,17.62
2023-05-25T11:46:39.252Z,17.48
2023-05-25T11:49:46.462Z,17.99
2023-05-25T11:52:55.495Z,18.46
2023-05-25T11:56:08.105Z,18.91
2023-05-25T11:59:05.243Z,18.95
2023-05-25T12:02:14.293Z,18.27
2023-05-25T12:05:22.206Z,18.24
2023-05-25T12:08:29.148Z,18.00
2023-05-25T12:11:37.380Z,17.48
2023-05-25T12:14:46.406Z,17.78
2023-05-25T12:17:53.339Z,18.31
2023-05-25T12:21:01.302Z,18.99
2023-05-25T12:24:10.198Z,19.02
2023-05-25T12:27:17.588Z,18.72
2023-05-25T12:30:25.855Z,18.49
2023-05-25T12:33:34.904Z,18.65
2023-05-25T12:36:42.287Z,18.67
2023-05-25T12:39:49.690Z,18.76
2023-05-25T12:42:58.906Z,18.47
2023-05-25T12:46:06.790Z,18.31
2023-05-25T12:49:13.995Z,18.31
2023-05-25T12:52:21.319Z,17.99
2023-05-25T12:55:29.628Z,17.92
2023-05-25T12:58:37.359Z,18.21
2023-05-25T13:01:45.242Z,17.95
2023-05-25T13:04:54.011Z,18.17
2023-05-25T13:08:01.842Z,18.15
2023-05-25T13:11:09.184Z,18.59
2023-05-25T13:14:17.410Z,18.64
2023-05-25T13:17:25.436Z,18.54
2023-05-25T13:20:32.994Z,18.31
2023-05-25T13:23:41.722Z,18.24
2023-05-25T13:26:50.848Z,18.39
2023-05-25T13:29:58.385Z,18.62
2023-05-25T13:33:05.871Z,18.64
2023-05-25T13:36:14.797Z,18.55
2023-05-25T13:39:22.647Z,18.46
2023-05-25T13:42:29.576Z,18.19
2023-05-25T13:45:38.922Z,18.17
2023-05-25T13:48:46.539Z,18.44
2023-05-25T13:51:53.692Z,18.27
2023-05-25T13:55:02.984Z,17.91
2023-05-25T13:58:10.709Z,17.74
2023-05-25T14:01:18.041Z,17.84
2023-05-25T14:04:27.056Z,18.00
2023-05-25T14:07:34.339Z,18.18
2023-05-25T14:10:42.270Z,18.49
2023-05-25T14:13:51.677Z,18.80
2023-05-25T14:16:58.988Z,19.02
2023-05-25T14:20:06.483Z,18.82
2023-05-25T14:23:15.947Z,18.68
2023-05-25T14:26:16.547Z,18.80
2023-05-25T14:29:24.301Z,18.98
2023-05-25T14:32:31.612Z,19.15
2023-05-25T14:35:40.639Z,19.60
2023-05-25T14:38:48.096Z,19.78
2023-05-25T14:41:55.358Z,19.91
2023-05-25T14:45:04.656Z,20.46
2023-05-25T14:48:16.497Z,21.05
2023-05-25T14:51:13.951Z,20.91
2023-05-25T14:54:22.710Z,20.38
2023-05-25T14:57:30.537Z,19.66
2023-05-25T15:00:37.832Z,19.29
2023-05-25T15:03:45.217Z,19.14
2023-05-25T15:06:54.644Z,18.77
2023-05-25T15:10:03.299Z,18.67
2023-05-25T15:13:12.004Z,18.73
2023-05-25T15:16:11.823Z,18.91
2023-05-25T15:19:19.656Z,18.99
2023-05-25T15:22:27.194Z,19.25
2023-05-25T15:25:36.059Z,19.95
2023-05-25T15:28:43.850Z,20.58
2023-05-25T15:31:51.381Z,20.65
2023-05-25T15:35:00.911Z,20.61
2023-05-25T15:38:08.578Z,20.69
2023-05-25T15:41:15.982Z,20.49
2023-05-25T15:44:23.732Z,20.66
2023-05-25T15:47:32.865Z,20.68
2023-05-25T15:50:40.364Z,20.59
2023-05-25T15:53:48.238Z,20.28
2023-05-25T15:56:56.731Z,20.34
2023-05-25T16:00:04.330Z,20.42
2023-05-25T16:03:12.258Z,20.38
2023-05-25T16:06:21.602Z,20.64
2023-05-25T16:09:28.989Z,20.58
2023-05-25T16:12:36.728Z,20.12
2023-05-25T16:15:45.779Z,19.84
2023-05-25T16:18:52.836Z,19.78
2023-05-25T16:22:00.531Z,19.90
2023-05-25T16:25:07.828Z,19.95
2023-05-25T16:28:16.593Z,19.94
2023-05-25T16:31:24.529Z,19.94
2023-05-25T16:34:31.784Z,20.09
2023-05-25T16:37:40.745Z,20.27
2023-05-25T16:40:47.968Z,20.38
2023-05-25T16:43:55.982Z,20.38
2023-05-25T16:47:05.231Z,20.13
2023-05-25T16:50:13.282Z,19.65
2023-05-25T16:53:21.338Z,19.43
2023-05-25T16:56:29.757Z,19.39
2023-05-25T16:59:38.091Z,19.32
2023-05-25T17:02:46.120Z,19.25
2023-05-25T17:05:53.952Z,19.32
2023-05-25T17:09:03.571Z,19.21
2023-05-25T17:12:10.975Z,19.08
2023-05-25T17:15:18.292Z,18.97
2023-05-25T17:18:27.544Z,18.90
2023-05-25T17:21:35.379Z,18.83
2023-05-25T17:24:42.687Z,18.61
2023-05-25T17:27:51.870Z,18.54
2023-05-25T17:30:58.933Z,18.62
2023-05-25T17:34:06.590Z,18.64
2023-05-25T17:37:15.385Z,18.61
2023-05-25T17:40:23.725Z,18.55
2023-05-25T17:43:30.700Z,18.39
2023-05-25T17:46:39.969Z,18.15
2023-05-25T17:49:47.171Z,18.13
2023-05-25T17:52:54.554Z,18.17
2023-05-25T17:56:02.377Z,18.17
2023-05-25T17:59:10.845Z,18.17
2023-05-25T18:02:18.426Z,18.12
2023-05-25T18:05:26.276Z,18.04
2023-05-25T18:08:35.036Z,18.06
2023-05-25T18:11:43.033Z,18.04
2023-05-25T18:14:50.523Z,18.02
2023-05-25T18:17:59.283Z,17.99
2023-05-25T18:21:07.156Z,17.99
2023-05-25T18:24:14.499Z,17.92
2023-05-25T18:27:23.520Z,17.88
2023-05-25T18:30:31.379Z,17.84
2023-05-25T18:33:39.242Z,17.76
2023-05-25T18:36:46.521Z,17.70
2023-05-25T18:39:55.274Z,17.66
2023-05-25T18:43:02.750Z,17.55
2023-05-25T18:46:10.811Z,17.41
2023-05-25T18:49:20.042Z,17.30
2023-05-25T18:52:27.899Z,17.22
2023-05-25T18:55:35.299Z,17.10
2023-05-25T18:58:44.264Z,16.95
2023-05-25T19:01:51.354Z,16.74
2023-05-25T19:05:01.868Z,16.55
2023-05-25T19:08:10.700Z,16.31
2023-05-25T19:11:17.717Z,16.11
2023-05-25T19:14:25.504Z,15.94
2023-05-25T19:17:34.102Z,15.76
2023-05-25T19:20:43.941Z,15.60
2023-05-25T19:23:51.765Z,15.45
2023-05-25T19:27:00.396Z,15.28
2023-05-25T19:30:09.754Z,15.12
2023-05-25T19:33:17.568Z,15.02
2023-05-25T19:36:24.959Z,15.01
2023-05-25T19:39:34.899Z,15.01
2023-05-25T19:42:42.563Z,15.01
2023-05-25T19:45:49.983Z,14.93
2023-05-25T19:48:59.263Z,14.83
2023-05-25T19:52:06.856Z,14.74
2023-05-25T19:55:14.190Z,14.67
2023-05-25T19:58:21.665Z,14.56
2023-05-25T20:01:30.280Z,14.44
2023-05-25T20:04:39.767Z,14.32
2023-05-25T20:07:38.103Z,14.20
2023-05-25T20:10:46.956Z,14.07
2023-05-25T20:13:54.680Z,13.99
2023-05-25T20:17:03.155Z,13.92
2023-05-25T20:20:11.884Z,13.91
2023-05-25T20:23:19.229Z,13.84
2023-05-25T20:26:26.886Z,13.80
2023-05-25T20:29:36.110Z,13.77
2023-05-25T20:32:44.090Z,13.69
2023-05-25T20:35:51.348Z,13.63
2023-05-25T20:38:58.436Z,13.56
2023-05-25T20:42:07.262Z,13.38
2023-05-25T20:45:15.011Z,13.29
2023-05-25T20:48:22.312Z,13.20
2023-05-25T20:51:31.199Z,13.15
2023-05-25T20:54:38.985Z,13.06
2023-05-25T20:57:46.479Z,12.96
2023-05-25T21:00:55.052Z,12.99
2023-05-25T21:04:02.882Z,13.02
2023-05-25T21:07:11.267Z,12.95
2023-05-25T21:10:20.491Z,12.89
2023-05-25T21:13:28.722Z,12.79
2023-05-25T21:16:36.536Z,12.75
2023-05-25T21:19:45.659Z,12.75
2023-05-25T21:22:53.811Z,12.71
2023-05-25T21:26:01.862Z,12.60
2023-05-25T21:29:08.888Z,12.49
2023-05-25T21:32:18.341Z,12.39
2023-05-25T21:35:25.611Z,12.33
2023-05-25T21:38:33.801Z,12.37
2023-05-25T21:41:43.305Z,12.38
2023-05-25T21:44:50.694Z,12.39
2023-05-25T21:47:58.864Z,12.37
2023-05-25T21:51:08.410Z,12.33
2023-05-25T21:54:16.271Z,12.33
2023-05-25T21:57:23.568Z,12.24
2023-05-25T22:00:35.296Z,12.16
2023-05-25T22:03:32.796Z,12.09
2023-05-25T22:06:40.780Z,12.04
2023-05-25T22:09:47.728Z,11.94
2023-05-25T22:12:57.463Z,11.96
2023-05-25T22:16:04.842Z,11.90
2023-05-25T22:19:13.035Z,11.93
2023-05-25T22:22:22.060Z,11.86
2023-05-25T22:25:29.536Z,11.78
2023-05-25T22:28:37.192Z,11.80
2023-05-25T22:31:46.333Z,11.80
2023-05-25T22:34:53.900Z,11.75
2023-05-25T22:38:01.673Z,11.59
2023-05-25T22:41:10.556Z,11.57
2023-05-25T22:44:18.190Z,11.52
2023-05-25T22:47:25.748Z,11.50
2023-05-25T22:50:33.943Z,11.44
2023-05-25T22:53:43.075Z,11.29
2023-05-25T22:56:50.680Z,11.27
2023-05-25T22:59:58.799Z,11.25
2023-05-25T23:03:07.758Z,11.24
2023-05-25T23:06:08.161Z,11.25
2023-05-25T23:09:15.472Z,11.24
2023-05-25T23:12:24.841Z,11.25
2023-05-25T23:15:32.468Z,11.21
2023-05-25T23:18:40.098Z,11.14
2023-05-25T23:21:49.418Z,11.09
2023-05-25T23:24:57.394Z,11.03
2023-05-25T23:28:05.022Z,11.01
2023-05-25T23:31:12.812Z,10.96
2023-05-25T23:34:22.069Z,10.96
2023-05-25T23:37:29.566Z,10.96
2023-05-25T23:40:37.560Z,10.91
2023-05-25T23:43:46.395Z,10.89
2023-05-25T23:46:53.792Z,10.86
2023-05-25T23:50:00.815Z,10.76
2023-05-25T23:53:10.161Z,10.70
2023-05-25T23:56:16.958Z,10.70
2023-05-25T23:59:24.689Z,10.66
